sensor_id;sensor_type;location;lat;lon;timestamp;P1;durP1;ratioP1;P2;durP2;ratioP2
10045;SDS011;5063;50.878;4.742;2023-07-13T00:01:27;6.37;;;1.77;;
10045;SDS011;5063;50.878;4.742;2023-07-13T00:03:54;5.00;;;2.00;;
10045;SDS011;5063;50.878;4.742;2023-07-13T00:06:21;2.57;;;1.60;;
10045;SDS011;5063;50.878;4.742;2023-07-13T00:08:47;6.60;;;2.10;;
10045;SDS011;5063;50.878;4.742;2023-07-13T00:11:14;5.57;;;2.33;;
10045;SDS011;5063;50.878;4.742;2023-07-13T00:13:41;4.27;;;2.10;;
10045;SDS011;5063;50.878;4.742;2023-07-13T00:16:08;5.47;;;2.60;;
10045;SDS011;5063;50.878;4.742;2023-07-13T00:18:35;7.20;;;2.30;;
10045;SDS011;5063;50.878;4.742;2023-07-13T00:21:02;5.97;;;2.10;;
10045;SDS011;5063;50.878;4.742;2023-07-13T00:23:37;6.17;;;2.50;;
10045;SDS011;5063;50.878;4.742;2023-07-13T00:26:05;4.73;;;1.90;;
10045;SDS011;5063;50.878;4.742;2023-07-13T00:28:32;4.77;;;1.93;;
10045;SDS011;5063;50.878;4.742;2023-07-13T00:30:59;2.90;;;1.97;;
10045;SDS011;5063;50.878;4.742;2023-07-13T00:33:25;5.60;;;2.10;;
10045;SDS011;5063;50.878;4.742;2023-07-13T00:35:53;3.63;;;2.00;;
10045;SDS011;5063;50.878;4.742;2023-07-13T00:38:20;4.83;;;2.27;;
10045;SDS011;5063;50.878;4.742;2023-07-13T00:40:46;6.97;;;2.30;;
10045;SDS011;5063;50.878;4.742;2023-07-13T00:43:30;5.33;;;2.00;;
10045;SDS011;5063;50.878;4.742;2023-07-13T00:48:23;4.93;;;2.03;;
10045;SDS011;5063;50.878;4.742;2023-07-13T00:50:53;3.83;;;2.10;;
10045;SDS011;5063;50.878;4.742;2023-07-13T00:53:21;6.97;;;2.47;;
10045;SDS011;5063;50.878;4.742;2023-07-13T00:55:48;5.50;;;2.37;;
10045;SDS011;5063;50.878;4.742;2023-07-13T00:58:16;5.67;;;2.60;;
10045;SDS011;5063;50.878;4.742;2023-07-13T01:00:42;4.37;;;2.53;;
10045;SDS011;5063;50.878;4.742;2023-07-13T01:03:08;4.93;;;2.00;;
10045;SDS011;5063;50.878;4.742;2023-07-13T01:05:35;7.60;;;2.40;;
10045;SDS011;5063;50.878;4.742;2023-07-13T01:08:02;7.40;;;2.40;;
10045;SDS011;5063;50.878;4.742;2023-07-13T01:10:30;9.43;;;2.40;;
10045;SDS011;5063;50.878;4.742;2023-07-13T01:13:03;4.87;;;2.50;;
10045;SDS011;5063;50.878;4.742;2023-07-13T01:15:35;10.50;;;2.37;;
10045;SDS011;5063;50.878;4.742;2023-07-13T01:18:04;3.67;;;2.33;;
10045;SDS011;5063;50.878;4.742;2023-07-13T01:20:32;3.63;;;2.17;;
10045;SDS011;5063;50.878;4.742;2023-07-13T01:23:09;5.23;;;2.03;;
10045;SDS011;5063;50.878;4.742;2023-07-13T01:25:36;8.37;;;2.57;;
10045;SDS011;5063;50.878;4.742;2023-07-13T01:28:03;7.47;;;2.50;;
10045;SDS011;5063;50.878;4.742;2023-07-13T01:30:30;4.63;;;1.90;;
10045;SDS011;5063;50.878;4.742;2023-07-13T01:32:57;5.63;;;2.10;;
10045;SDS011;5063;50.878;4.742;2023-07-13T01:35:23;6.97;;;2.50;;
10045;SDS011;5063;50.878;4.742;2023-07-13T01:37:50;5.77;;;2.20;;
10045;SDS011;5063;50.878;4.742;2023-07-13T01:40:16;7.57;;;2.80;;
10045;SDS011;5063;50.878;4.742;2023-07-13T01:42:42;8.70;;;2.30;;
10045;SDS011;5063;50.878;4.742;2023-07-13T01:45:08;6.07;;;2.70;;
10045;SDS011;5063;50.878;4.742;2023-07-13T01:47:34;6.93;;;2.37;;
10045;SDS011;5063;50.878;4.742;2023-07-13T01:50:00;8.43;;;2.73;;
10045;SDS011;5063;50.878;4.742;2023-07-13T01:52:25;6.27;;;2.83;;
10045;SDS011;5063;50.878;4.742;2023-07-13T01:54:51;5.37;;;2.37;;
10045;SDS011;5063;50.878;4.742;2023-07-13T01:57:17;8.23;;;2.70;;
10045;SDS011;5063;50.878;4.742;2023-07-13T01:59:42;7.73;;;2.47;;
10045;SDS011;5063;50.878;4.742;2023-07-13T02:02:08;7.77;;;2.73;;
10045;SDS011;5063;50.878;4.742;2023-07-13T02:04:34;6.90;;;2.47;;
10045;SDS011;5063;50.878;4.742;2023-07-13T02:07:00;7.87;;;2.50;;
10045;SDS011;5063;50.878;4.742;2023-07-13T02:09:25;6.03;;;2.47;;
10045;SDS011;5063;50.878;4.742;2023-07-13T02:11:51;8.20;;;2.60;;
10045;SDS011;5063;50.878;4.742;2023-07-13T02:14:17;7.83;;;2.87;;
10045;SDS011;5063;50.878;4.742;2023-07-13T02:16:43;11.53;;;2.97;;
10045;SDS011;5063;50.878;4.742;2023-07-13T02:19:08;9.77;;;2.80;;
10045;SDS011;5063;50.878;4.742;2023-07-13T02:21:34;5.63;;;2.63;;
10045;SDS011;5063;50.878;4.742;2023-07-13T02:24:00;5.57;;;2.30;;
10045;SDS011;5063;50.878;4.742;2023-07-13T02:26:26;4.07;;;2.57;;
10045;SDS011;5063;50.878;4.742;2023-07-13T02:28:53;10.37;;;2.83;;
10045;SDS011;5063;50.878;4.742;2023-07-13T02:31:19;2.70;;;1.90;;
10045;SDS011;5063;50.878;4.742;2023-07-13T02:33:45;4.20;;;2.40;;
10045;SDS011;5063;50.878;4.742;2023-07-13T02:36:11;4.37;;;2.33;;
10045;SDS011;5063;50.878;4.742;2023-07-13T02:38:39;5.53;;;2.37;;
10045;SDS011;5063;50.878;4.742;2023-07-13T02:41:05;8.13;;;2.83;;
10045;SDS011;5063;50.878;4.742;2023-07-13T02:43:33;7.47;;;2.70;;
10045;SDS011;5063;50.878;4.742;2023-07-13T02:45:59;6.83;;;2.50;;
10045;SDS011;5063;50.878;4.742;2023-07-13T02:48:34;7.07;;;2.20;;
10045;SDS011;5063;50.878;4.742;2023-07-13T02:51:00;11.33;;;2.80;;
10045;SDS011;5063;50.878;4.742;2023-07-13T02:53:26;9.43;;;2.60;;
10045;SDS011;5063;50.878;4.742;2023-07-13T02:55:52;8.43;;;3.13;;
10045;SDS011;5063;50.878;4.742;2023-07-13T02:58:17;8.37;;;2.50;;
10045;SDS011;5063;50.878;4.742;2023-07-13T03:00:46;7.00;;;3.43;;
10045;SDS011;5063;50.878;4.742;2023-07-13T03:03:16;8.77;;;2.50;;
10045;SDS011;5063;50.878;4.742;2023-07-13T03:05:42;10.73;;;2.70;;
10045;SDS011;5063;50.878;4.742;2023-07-13T03:08:10;7.63;;;2.87;;
10045;SDS011;5063;50.878;4.742;2023-07-13T03:10:35;11.83;;;2.60;;
10045;SDS011;5063;50.878;4.742;2023-07-13T03:13:02;6.87;;;2.87;;
10045;SDS011;5063;50.878;4.742;2023-07-13T03:15:28;8.87;;;2.57;;
10045;SDS011;5063;50.878;4.742;2023-07-13T03:17:53;9.10;;;3.03;;
10045;SDS011;5063;50.878;4.742;2023-07-13T03:20:19;7.30;;;2.50;;
10045;SDS011;5063;50.878;4.742;2023-07-13T03:22:45;7.30;;;2.77;;
10045;SDS011;5063;50.878;4.742;2023-07-13T03:25:11;13.10;;;3.20;;
10045;SDS011;5063;50.878;4.742;2023-07-13T03:27:37;7.47;;;2.60;;
10045;SDS011;5063;50.878;4.742;2023-07-13T03:30:03;10.40;;;2.97;;
10045;SDS011;5063;50.878;4.742;2023-07-13T03:32:30;8.23;;;2.67;;
10045;SDS011;5063;50.878;4.742;2023-07-13T03:34:56;9.83;;;3.00;;
10045;SDS011;5063;50.878;4.742;2023-07-13T03:37:22;7.33;;;2.83;;
10045;SDS011;5063;50.878;4.742;2023-07-13T03:39:49;6.60;;;2.67;;
10045;SDS011;5063;50.878;4.742;2023-07-13T03:42:14;6.40;;;2.60;;
10045;SDS011;5063;50.878;4.742;2023-07-13T03:44:40;7.57;;;2.90;;
10045;SDS011;5063;50.878;4.742;2023-07-13T03:47:07;6.43;;;2.50;;
10045;SDS011;5063;50.878;4.742;2023-07-13T03:49:34;6.97;;;2.57;;
10045;SDS011;5063;50.878;4.742;2023-07-13T03:52:00;7.47;;;2.90;;
10045;SDS011;5063;50.878;4.742;2023-07-13T03:54:26;11.00;;;3.37;;
10045;SDS011;5063;50.878;4.742;2023-07-13T03:56:51;6.43;;;3.00;;
10045;SDS011;5063;50.878;4.742;2023-07-13T03:59:17;4.93;;;2.97;;
10045;SDS011;5063;50.878;4.742;2023-07-13T04:01:43;10.00;;;2.63;;
10045;SDS011;5063;50.878;4.742;2023-07-13T04:04:09;9.43;;;3.17;;
10045;SDS011;5063;50.878;4.742;2023-07-13T04:06:35;7.73;;;2.53;;
10045;SDS011;5063;50.878;4.742;2023-07-13T04:09:02;10.07;;;3.00;;
10045;SDS011;5063;50.878;4.742;2023-07-13T04:11:30;8.40;;;2.73;;
10045;SDS011;5063;50.878;4.742;2023-07-13T04:13:57;8.23;;;3.57;;
10045;SDS011;5063;50.878;4.742;2023-07-13T04:16:23;11.47;;;3.20;;
10045;SDS011;5063;50.878;4.742;2023-07-13T04:18:49;8.60;;;3.20;;
10045;SDS011;5063;50.878;4.742;2023-07-13T04:21:16;8.27;;;2.97;;
10045;SDS011;5063;50.878;4.742;2023-07-13T04:23:42;10.00;;;3.00;;
10045;SDS011;5063;50.878;4.742;2023-07-13T04:26:08;9.60;;;3.53;;
10045;SDS011;5063;50.878;4.742;2023-07-13T04:28:34;11.03;;;3.10;;
10045;SDS011;5063;50.878;4.742;2023-07-13T04:31:00;8.87;;;2.70;;
10045;SDS011;5063;50.878;4.742;2023-07-13T04:33:27;11.30;;;3.10;;
10045;SDS011;5063;50.878;4.742;2023-07-13T04:35:53;6.90;;;2.90;;
10045;SDS011;5063;50.878;4.742;2023-07-13T04:38:23;6.13;;;2.50;;
10045;SDS011;5063;50.878;4.742;2023-07-13T04:40:50;6.10;;;2.90;;
10045;SDS011;5063;50.878;4.742;2023-07-13T04:43:16;7.47;;;3.00;;
10045;SDS011;5063;50.878;4.742;2023-07-13T04:45:42;6.07;;;2.60;;
10045;SDS011;5063;50.878;4.742;2023-07-13T04:48:08;13.93;;;3.30;;
10045;SDS011;5063;50.878;4.742;2023-07-13T04:50:35;13.03;;;3.40;;
10045;SDS011;5063;50.878;4.742;2023-07-13T04:53:02;6.87;;;3.23;;
10045;SDS011;5063;50.878;4.742;2023-07-13T04:55:29;8.40;;;3.10;;
10045;SDS011;5063;50.878;4.742;2023-07-13T04:57:55;10.23;;;3.20;;
10045;SDS011;5063;50.878;4.742;2023-07-13T05:00:23;7.53;;;2.67;;
10045;SDS011;5063;50.878;4.742;2023-07-13T05:02:49;9.23;;;3.13;;
10045;SDS011;5063;50.878;4.742;2023-07-13T05:05:16;5.63;;;2.73;;
10045;SDS011;5063;50.878;4.742;2023-07-13T05:07:41;9.50;;;2.90;;
10045;SDS011;5063;50.878;4.742;2023-07-13T05:10:07;8.90;;;3.23;;
10045;SDS011;5063;50.878;4.742;2023-07-13T05:12:34;10.77;;;2.90;;
10045;SDS011;5063;50.878;4.742;2023-07-13T05:14:59;11.40;;;3.37;;
10045;SDS011;5063;50.878;4.742;2023-07-13T05:17:26;9.23;;;3.10;;
10045;SDS011;5063;50.878;4.742;2023-07-13T05:19:51;7.77;;;3.03;;
10045;SDS011;5063;50.878;4.742;2023-07-13T05:22:17;14.80;;;3.63;;
10045;SDS011;5063;50.878;4.742;2023-07-13T05:24:43;11.20;;;3.33;;
10045;SDS011;5063;50.878;4.742;2023-07-13T05:27:08;6.97;;;2.87;;
10045;SDS011;5063;50.878;4.742;2023-07-13T05:29:34;7.97;;;3.47;;
10045;SDS011;5063;50.878;4.742;2023-07-13T05:32:00;10.27;;;3.63;;
10045;SDS011;5063;50.878;4.742;2023-07-13T05:34:26;10.17;;;2.90;;
10045;SDS011;5063;50.878;4.742;2023-07-13T05:36:51;10.20;;;3.17;;
10045;SDS011;5063;50.878;4.742;2023-07-13T05:39:18;13.50;;;3.10;;
10045;SDS011;5063;50.878;4.742;2023-07-13T05:41:44;8.13;;;2.83;;
10045;SDS011;5063;50.878;4.742;2023-07-13T05:44:10;16.50;;;3.17;;
10045;SDS011;5063;50.878;4.742;2023-07-13T05:46:35;8.80;;;3.30;;
10045;SDS011;5063;50.878;4.742;2023-07-13T05:49:01;11.50;;;2.70;;
10045;SDS011;5063;50.878;4.742;2023-07-13T05:51:28;9.63;;;2.97;;
10045;SDS011;5063;50.878;4.742;2023-07-13T05:53:54;11.30;;;2.67;;
10045;SDS011;5063;50.878;4.742;2023-07-13T05:56:20;11.07;;;3.17;;
10045;SDS011;5063;50.878;4.742;2023-07-13T05:58:47;9.93;;;3.37;;
10045;SDS011;5063;50.878;4.742;2023-07-13T06:01:13;7.50;;;2.90;;
10045;SDS011;5063;50.878;4.742;2023-07-13T06:03:40;6.87;;;3.10;;
10045;SDS011;5063;50.878;4.742;2023-07-13T06:06:06;7.83;;;2.93;;
10045;SDS011;5063;50.878;4.742;2023-07-13T06:08:34;8.43;;;3.07;;
10045;SDS011;5063;50.878;4.742;2023-07-13T06:11:07;8.83;;;3.00;;
10045;SDS011;5063;50.878;4.742;2023-07-13T06:13:41;12.83;;;3.10;;
10045;SDS011;5063;50.878;4.742;2023-07-13T06:16:07;8.93;;;2.90;;
10045;SDS011;5063;50.878;4.742;2023-07-13T06:18:34;13.47;;;2.97;;
10045;SDS011;5063;50.878;4.742;2023-07-13T06:21:05;11.30;;;3.63;;
10045;SDS011;5063;50.878;4.742;2023-07-13T06:23:35;7.37;;;2.80;;
10045;SDS011;5063;50.878;4.742;2023-07-13T06:26:02;12.47;;;3.40;;
10045;SDS011;5063;50.878;4.742;2023-07-13T06:28:29;9.40;;;3.17;;
10045;SDS011;5063;50.878;4.742;2023-07-13T06:30:56;6.83;;;2.73;;
10045;SDS011;5063;50.878;4.742;2023-07-13T06:33:23;10.00;;;3.07;;
10045;SDS011;5063;50.878;4.742;2023-07-13T06:35:49;9.40;;;3.13;;
10045;SDS011;5063;50.878;4.742;2023-07-13T06:38:15;12.10;;;3.47;;
10045;SDS011;5063;50.878;4.742;2023-07-13T06:40:41;8.73;;;3.10;;
10045;SDS011;5063;50.878;4.742;2023-07-13T06:43:07;7.47;;;2.90;;
10045;SDS011;5063;50.878;4.742;2023-07-13T06:45:36;8.33;;;2.93;;
10045;SDS011;5063;50.878;4.742;2023-07-13T06:48:07;10.37;;;3.43;;
10045;SDS011;5063;50.878;4.742;2023-07-13T06:50:33;12.32;;;3.28;;
10045;SDS011;5063;50.878;4.742;2023-07-13T06:52:59;11.15;;;2.88;;
10045;SDS011;5063;50.878;4.742;2023-07-13T06:55:25;10.60;;;3.50;;
10045;SDS011;5063;50.878;4.742;2023-07-13T06:57:51;8.68;;;3.40;;
10045;SDS011;5063;50.878;4.742;2023-07-13T07:00:17;7.47;;;2.47;;
10045;SDS011;5063;50.878;4.742;2023-07-13T07:02:43;5.72;;;2.70;;
10045;SDS011;5063;50.878;4.742;2023-07-13T07:05:08;5.25;;;2.30;;
10045;SDS011;5063;50.878;4.742;2023-07-13T07:07:34;7.63;;;2.80;;
10045;SDS011;5063;50.878;4.742;2023-07-13T07:10:00;11.45;;;3.00;;
10045;SDS011;5063;50.878;4.742;2023-07-13T07:12:26;6.38;;;2.58;;
10045;SDS011;5063;50.878;4.742;2023-07-13T07:14:52;8.25;;;3.05;;
10045;SDS011;5063;50.878;4.742;2023-07-13T07:17:18;10.10;;;3.50;;
10045;SDS011;5063;50.878;4.742;2023-07-13T07:19:44;8.95;;;3.38;;
10045;SDS011;5063;50.878;4.742;2023-07-13T07:22:10;10.98;;;2.90;;
10045;SDS011;5063;50.878;4.742;2023-07-13T07:24:35;8.50;;;3.20;;
10045;SDS011;5063;50.878;4.742;2023-07-13T07:27:01;7.40;;;3.30;;
10045;SDS011;5063;50.878;4.742;2023-07-13T07:29:27;8.35;;;2.90;;
10045;SDS011;5063;50.878;4.742;2023-07-13T07:31:53;6.53;;;2.45;;
10045;SDS011;5063;50.878;4.742;2023-07-13T07:34:19;7.95;;;3.03;;
10045;SDS011;5063;50.878;4.742;2023-07-13T07:36:45;6.18;;;2.60;;
10045;SDS011;5063;50.878;4.742;2023-07-13T07:39:11;6.57;;;3.25;;
10045;SDS011;5063;50.878;4.742;2023-07-13T07:41:37;8.15;;;3.00;;
10045;SDS011;5063;50.878;4.742;2023-07-13T07:44:03;7.75;;;2.42;;
10045;SDS011;5063;50.878;4.742;2023-07-13T07:46:29;4.95;;;2.20;;
10045;SDS011;5063;50.878;4.742;2023-07-13T07:48:55;8.02;;;2.78;;
10045;SDS011;5063;50.878;4.742;2023-07-13T07:51:21;7.70;;;2.50;;
10045;SDS011;5063;50.878;4.742;2023-07-13T07:53:48;5.63;;;2.60;;
10045;SDS011;5063;50.878;4.742;2023-07-13T07:56:13;11.27;;;2.97;;
10045;SDS011;5063;50.878;4.742;2023-07-13T07:58:41;10.05;;;3.03;;
10045;SDS011;5063;50.878;4.742;2023-07-13T08:01:08;9.65;;;2.88;;
10045;SDS011;5063;50.878;4.742;2023-07-13T08:03:34;6.72;;;2.75;;
10045;SDS011;5063;50.878;4.742;2023-07-13T08:06:00;9.55;;;2.95;;
10045;SDS011;5063;50.878;4.742;2023-07-13T08:08:26;8.32;;;2.53;;
10045;SDS011;5063;50.878;4.742;2023-07-13T08:10:52;7.57;;;3.17;;
10045;SDS011;5063;50.878;4.742;2023-07-13T08:13:18;7.47;;;2.40;;
10045;SDS011;5063;50.878;4.742;2023-07-13T08:15:44;8.50;;;3.03;;
10045;SDS011;5063;50.878;4.742;2023-07-13T08:18:11;7.78;;;2.47;;
10045;SDS011;5063;50.878;4.742;2023-07-13T08:20:39;10.95;;;2.85;;
10045;SDS011;5063;50.878;4.742;2023-07-13T08:23:05;6.38;;;2.45;;
10045;SDS011;5063;50.878;4.742;2023-07-13T08:25:33;6.82;;;2.53;;
10045;SDS011;5063;50.878;4.742;2023-07-13T08:27:59;8.10;;;2.47;;
10045;SDS011;5063;50.878;4.742;2023-07-13T08:30:24;9.57;;;3.13;;
10045;SDS011;5063;50.878;4.742;2023-07-13T08:32:50;9.68;;;2.88;;
10045;SDS011;5063;50.878;4.742;2023-07-13T08:35:16;6.15;;;2.53;;
10045;SDS011;5063;50.878;4.742;2023-07-13T08:37:42;8.40;;;2.83;;
10045;SDS011;5063;50.878;4.742;2023-07-13T08:40:08;6.93;;;2.70;;
10045;SDS011;5063;50.878;4.742;2023-07-13T08:45:28;6.07;;;2.55;;
10045;SDS011;5063;50.878;4.742;2023-07-13T08:50:51;7.32;;;2.17;;
10045;SDS011;5063;50.878;4.742;2023-07-13T08:53:20;7.00;;;2.78;;
10045;SDS011;5063;50.878;4.742;2023-07-13T08:55:48;4.78;;;2.30;;
10045;SDS011;5063;50.878;4.742;2023-07-13T08:58:21;4.97;;;2.47;;
10045;SDS011;5063;50.878;4.742;2023-07-13T09:03:16;5.97;;;2.67;;
10045;SDS011;5063;50.878;4.742;2023-07-13T09:05:46;5.85;;;2.28;;
10045;SDS011;5063;50.878;4.742;2023-07-13T09:14:02;5.88;;;2.47;;
10045;SDS011;5063;50.878;4.742;2023-07-13T09:16:52;5.90;;;2.03;;
10045;SDS011;5063;50.878;4.742;2023-07-13T09:19:27;9.70;;;2.15;;
10045;SDS011;5063;50.878;4.742;2023-07-13T09:21:55;4.22;;;1.92;;
10045;SDS011;5063;50.878;4.742;2023-07-13T09:24:35;4.20;;;1.92;;
10045;SDS011;5063;50.878;4.742;2023-07-13T09:27:01;4.47;;;1.75;;
10045;SDS011;5063;50.878;4.742;2023-07-13T09:29:37;3.80;;;1.90;;
10045;SDS011;5063;50.878;4.742;2023-07-13T09:32:09;6.75;;;1.92;;
10045;SDS011;5063;50.878;4.742;2023-07-13T09:34:40;4.95;;;2.03;;
10045;SDS011;5063;50.878;4.742;2023-07-13T09:37:05;5.07;;;2.00;;
10045;SDS011;5063;50.878;4.742;2023-07-13T09:39:33;3.70;;;2.20;;
10045;SDS011;5063;50.878;4.742;2023-07-13T09:47:28;1.95;;;1.40;;
10045;SDS011;5063;50.878;4.742;2023-07-13T09:50:00;2.70;;;1.50;;
10045;SDS011;5063;50.878;4.742;2023-07-13T09:55:22;5.65;;;2.08;;
10045;SDS011;5063;50.878;4.742;2023-07-13T09:57:55;3.78;;;1.80;;
10045;SDS011;5063;50.878;4.742;2023-07-13T10:00:28;3.80;;;1.90;;
10045;SDS011;5063;50.878;4.742;2023-07-13T10:03:02;5.93;;;2.20;;
10045;SDS011;5063;50.878;4.742;2023-07-13T10:05:42;4.85;;;1.90;;
10045;SDS011;5063;50.878;4.742;2023-07-13T10:08:20;4.60;;;1.77;;
10045;SDS011;5063;50.878;4.742;2023-07-13T10:11:18;3.50;;;1.73;;
10045;SDS011;5063;50.878;4.742;2023-07-13T10:13:57;6.43;;;2.00;;
10045;SDS011;5063;50.878;4.742;2023-07-13T10:16:34;3.20;;;1.67;;
10045;SDS011;5063;50.878;4.742;2023-07-13T10:20:02;4.93;;;1.98;;
10045;SDS011;5063;50.878;4.742;2023-07-13T10:22:02;4.35;;;1.85;;
10045;SDS011;5063;50.878;4.742;2023-07-13T10:24:58;4.18;;;1.80;;
10045;SDS011;5063;50.878;4.742;2023-07-13T10:27:31;4.53;;;2.10;;
10045;SDS011;5063;50.878;4.742;2023-07-13T10:30:12;5.70;;;1.77;;
10045;SDS011;5063;50.878;4.742;2023-07-13T10:32:57;3.80;;;1.40;;
10045;SDS011;5063;50.878;4.742;2023-07-13T10:35:25;3.15;;;1.67;;
10045;SDS011;5063;50.878;4.742;2023-07-13T10:37:55;6.47;;;2.05;;
10045;SDS011;5063;50.878;4.742;2023-07-13T10:40:36;6.68;;;1.85;;
10045;SDS011;5063;50.878;4.742;2023-07-13T10:43:04;4.22;;;2.15;;
10045;SDS011;5063;50.878;4.742;2023-07-13T10:45:38;5.72;;;1.88;;
10045;SDS011;5063;50.878;4.742;2023-07-13T10:48:04;4.88;;;1.80;;
10045;SDS011;5063;50.878;4.742;2023-07-13T10:50:35;4.53;;;1.70;;
10045;SDS011;5063;50.878;4.742;2023-07-13T10:58:22;6.00;;;2.22;;
10045;SDS011;5063;50.878;4.742;2023-07-13T11:03:33;3.72;;;1.73;;
10045;SDS011;5063;50.878;4.742;2023-07-13T11:06:08;6.10;;;2.00;;
10045;SDS011;5063;50.878;4.742;2023-07-13T11:09:18;3.95;;;1.77;;
10045;SDS011;5063;50.878;4.742;2023-07-13T11:12:02;3.70;;;1.80;;
10045;SDS011;5063;50.878;4.742;2023-07-13T11:17:24;3.75;;;2.17;;
10045;SDS011;5063;50.878;4.742;2023-07-13T11:25:29;3.25;;;1.25;;
10045;SDS011;5063;50.878;4.742;2023-07-13T11:28:05;3.47;;;1.92;;
10045;SDS011;5063;50.878;4.742;2023-07-13T11:30:46;6.18;;;2.25;;
10045;SDS011;5063;50.878;4.742;2023-07-13T11:38:42;2.17;;;1.45;;
10045;SDS011;5063;50.878;4.742;2023-07-13T11:43:49;4.03;;;1.92;;
10045;SDS011;5063;50.878;4.742;2023-07-13T11:46:20;3.60;;;1.58;;
10045;SDS011;5063;50.878;4.742;2023-07-13T11:48:48;2.78;;;1.42;;
10045;SDS011;5063;50.878;4.742;2023-07-13T11:51:29;4.43;;;1.65;;
10045;SDS011;5063;50.878;4.742;2023-07-13T11:53:56;3.47;;;1.77;;
10045;SDS011;5063;50.878;4.742;2023-07-13T11:56:27;3.30;;;1.63;;
10045;SDS011;5063;50.878;4.742;2023-07-13T11:58:56;4.63;;;1.60;;
10045;SDS011;5063;50.878;4.742;2023-07-13T12:01:30;3.13;;;1.73;;
10045;SDS011;5063;50.878;4.742;2023-07-13T12:04:01;3.25;;;1.40;;
10045;SDS011;5063;50.878;4.742;2023-07-13T12:06:32;5.75;;;1.70;;
10045;SDS011;5063;50.878;4.742;2023-07-13T12:09:03;2.70;;;1.55;;
10045;SDS011;5063;50.878;4.742;2023-07-13T12:11:39;3.28;;;1.40;;
10045;SDS011;5063;50.878;4.742;2023-07-13T12:14:12;3.55;;;1.90;;
10045;SDS011;5063;50.878;4.742;2023-07-13T12:16:40;3.30;;;1.50;;
10045;SDS011;5063;50.878;4.742;2023-07-13T12:19:29;2.15;;;1.52;;
10045;SDS011;5063;50.878;4.742;2023-07-13T12:21:58;6.35;;;1.50;;
10045;SDS011;5063;50.878;4.742;2023-07-13T12:24:24;3.30;;;1.30;;
10045;SDS011;5063;50.878;4.742;2023-07-13T12:26:52;5.90;;;1.83;;
10045;SDS011;5063;50.878;4.742;2023-07-13T12:29:26;2.35;;;1.30;;
10045;SDS011;5063;50.878;4.742;2023-07-13T12:31:52;1.60;;;1.27;;
10045;SDS011;5063;50.878;4.742;2023-07-13T12:34:19;2.95;;;1.50;;
10045;SDS011;5063;50.878;4.742;2023-07-13T12:36:51;2.80;;;1.48;;
10045;SDS011;5063;50.878;4.742;2023-07-13T12:39:22;4.85;;;1.77;;
10045;SDS011;5063;50.878;4.742;2023-07-13T12:42:00;2.85;;;1.30;;
10045;SDS011;5063;50.878;4.742;2023-07-13T12:45:03;3.58;;;1.60;;
10045;SDS011;5063;50.878;4.742;2023-07-13T12:47:43;2.08;;;1.27;;
10045;SDS011;5063;50.878;4.742;2023-07-13T12:50:17;3.38;;;1.45;;
10045;SDS011;5063;50.878;4.742;2023-07-13T12:52:50;2.83;;;1.40;;
10045;SDS011;5063;50.878;4.742;2023-07-13T12:55:21;3.63;;;1.40;;
10045;SDS011;5063;50.878;4.742;2023-07-13T12:57:54;4.35;;;1.98;;
10045;SDS011;5063;50.878;4.742;2023-07-13T13:03:05;4.93;;;2.05;;
10045;SDS011;5063;50.878;4.742;2023-07-13T13:05:37;3.30;;;1.40;;
10045;SDS011;5063;50.878;4.742;2023-07-13T13:08:03;2.95;;;1.80;;
10045;SDS011;5063;50.878;4.742;2023-07-13T13:10:29;2.25;;;1.35;;
10045;SDS011;5063;50.878;4.742;2023-07-13T13:12:55;2.63;;;1.63;;
10045;SDS011;5063;50.878;4.742;2023-07-13T13:15:21;2.75;;;1.70;;
10045;SDS011;5063;50.878;4.742;2023-07-13T13:17:48;2.63;;;1.40;;
10045;SDS011;5063;50.878;4.742;2023-07-13T13:20:15;1.85;;;1.40;;
10045;SDS011;5063;50.878;4.742;2023-07-13T13:22:45;2.10;;;1.40;;
10045;SDS011;5063;50.878;4.742;2023-07-13T13:25:11;1.83;;;1.50;;
10045;SDS011;5063;50.878;4.742;2023-07-13T13:27:39;1.98;;;1.30;;
10045;SDS011;5063;50.878;4.742;2023-07-13T13:30:10;2.60;;;1.50;;
10045;SDS011;5063;50.878;4.742;2023-07-13T13:32:38;3.85;;;1.92;;
10045;SDS011;5063;50.878;4.742;2023-07-13T13:35:19;5.40;;;1.83;;
10045;SDS011;5063;50.878;4.742;2023-07-13T13:37:46;4.63;;;1.83;;
10045;SDS011;5063;50.878;4.742;2023-07-13T13:40:17;3.13;;;1.83;;
10045;SDS011;5063;50.878;4.742;2023-07-13T13:42:45;4.75;;;1.85;;
10045;SDS011;5063;50.878;4.742;2023-07-13T13:45:12;2.85;;;1.52;;
10045;SDS011;5063;50.878;4.742;2023-07-13T13:47:38;3.13;;;1.67;;
10045;SDS011;5063;50.878;4.742;2023-07-13T13:50:23;2.83;;;1.58;;
10045;SDS011;5063;50.878;4.742;2023-07-13T13:52:49;2.92;;;1.90;;
10045;SDS011;5063;50.878;4.742;2023-07-13T13:55:19;4.80;;;1.77;;
10045;SDS011;5063;50.878;4.742;2023-07-13T13:57:46;2.72;;;1.90;;
10045;SDS011;5063;50.878;4.742;2023-07-13T14:00:13;2.25;;;1.70;;
10045;SDS011;5063;50.878;4.742;2023-07-13T14:02:44;3.22;;;1.55;;
10045;SDS011;5063;50.878;4.742;2023-07-13T14:05:13;4.15;;;1.50;;
10045;SDS011;5063;50.878;4.742;2023-07-13T14:07:42;2.60;;;1.50;;
10045;SDS011;5063;50.878;4.742;2023-07-13T14:10:14;3.03;;;1.50;;
10045;SDS011;5063;50.878;4.742;2023-07-13T14:12:48;3.58;;;1.45;;
10045;SDS011;5063;50.878;4.742;2023-07-13T14:15:25;5.30;;;1.58;;
10045;SDS011;5063;50.878;4.742;2023-07-13T14:17:53;2.05;;;1.45;;
10045;SDS011;5063;50.878;4.742;2023-07-13T14:20:20;3.13;;;1.70;;
10045;SDS011;5063;50.878;4.742;2023-07-13T14:22:49;2.42;;;1.63;;
10045;SDS011;5063;50.878;4.742;2023-07-13T14:25:16;3.10;;;1.80;;
10045;SDS011;5063;50.878;4.742;2023-07-13T14:27:44;3.95;;;1.67;;
10045;SDS011;5063;50.878;4.742;2023-07-13T14:30:14;3.13;;;1.77;;
10045;SDS011;5063;50.878;4.742;2023-07-13T14:32:41;4.40;;;1.45;;
10045;SDS011;5063;50.878;4.742;2023-07-13T14:35:10;3.05;;;1.75;;
10045;SDS011;5063;50.878;4.742;2023-07-13T14:37:39;4.07;;;1.55;;
10045;SDS011;5063;50.878;4.742;2023-07-13T14:40:24;2.25;;;1.55;;
10045;SDS011;5063;50.878;4.742;2023-07-13T14:42:53;1.73;;;1.30;;
10045;SDS011;5063;50.878;4.742;2023-07-13T14:45:19;2.88;;;1.60;;
10045;SDS011;5063;50.878;4.742;2023-07-13T14:47:46;3.03;;;1.58;;
10045;SDS011;5063;50.878;4.742;2023-07-13T14:50:20;3.08;;;1.50;;
10045;SDS011;5063;50.878;4.742;2023-07-13T14:52:49;3.88;;;1.50;;
10045;SDS011;5063;50.878;4.742;2023-07-13T14:55:17;3.65;;;1.90;;
10045;SDS011;5063;50.878;4.742;2023-07-13T14:57:44;2.45;;;1.77;;
10045;SDS011;5063;50.878;4.742;2023-07-13T15:00:21;3.15;;;1.85;;
10045;SDS011;5063;50.878;4.742;2023-07-13T15:02:50;4.70;;;1.50;;
10045;SDS011;5063;50.878;4.742;2023-07-13T15:05:23;2.45;;;1.73;;
10045;SDS011;5063;50.878;4.742;2023-07-13T15:07:51;3.00;;;1.55;;
10045;SDS011;5063;50.878;4.742;2023-07-13T15:10:24;2.45;;;1.77;;
10045;SDS011;5063;50.878;4.742;2023-07-13T15:12:57;3.55;;;1.70;;
10045;SDS011;5063;50.878;4.742;2023-07-13T15:15:26;4.60;;;2.00;;
10045;SDS011;5063;50.878;4.742;2023-07-13T15:17:53;3.63;;;1.80;;
10045;SDS011;5063;50.878;4.742;2023-07-13T15:22:48;4.93;;;1.58;;
10045;SDS011;5063;50.878;4.742;2023-07-13T15:25:15;2.17;;;1.58;;
10045;SDS011;5063;50.878;4.742;2023-07-13T15:27:43;2.78;;;1.70;;
10045;SDS011;5063;50.878;4.742;2023-07-13T15:30:09;3.15;;;1.90;;
10045;SDS011;5063;50.878;4.742;2023-07-13T15:32:35;4.10;;;1.40;;
10045;SDS011;5063;50.878;4.742;2023-07-13T15:35:01;3.40;;;1.83;;
10045;SDS011;5063;50.878;4.742;2023-07-13T15:37:27;2.53;;;1.35;;
10045;SDS011;5063;50.878;4.742;2023-07-13T15:39:53;3.05;;;1.73;;
10045;SDS011;5063;50.878;4.742;2023-07-13T15:42:19;2.40;;;1.38;;
10045;SDS011;5063;50.878;4.742;2023-07-13T15:44:46;2.20;;;1.60;;
10045;SDS011;5063;50.878;4.742;2023-07-13T15:47:13;2.97;;;1.70;;
10045;SDS011;5063;50.878;4.742;2023-07-13T15:49:40;2.60;;;1.45;;
10045;SDS011;5063;50.878;4.742;2023-07-13T15:52:24;2.53;;;1.50;;
10045;SDS011;5063;50.878;4.742;2023-07-13T15:54:50;3.50;;;1.30;;
10045;SDS011;5063;50.878;4.742;2023-07-13T15:57:16;3.92;;;1.55;;
10045;SDS011;5063;50.878;4.742;2023-07-13T15:59:43;1.73;;;1.58;;
10045;SDS011;5063;50.878;4.742;2023-07-13T16:02:12;2.95;;;1.90;;
10045;SDS011;5063;50.878;4.742;2023-07-13T16:04:41;2.55;;;1.83;;